createdAt,value
2019-05-19T00:00:40.837Z,93.75
2019-05-19T00:03:11.130Z,93.89
2019-05-19T00:05:42.437Z,94.19
2019-05-19T00:08:13.985Z,94.09
2019-05-19T00:10:45.256Z,93.99
2019-05-19T00:13:16.227Z,93.83
2019-05-19T00:15:47.459Z,94.00
2019-05-19T00:18:18.433Z,94.47
2019-05-19T00:20:49.661Z,93.90
2019-05-19T00:23:20.571Z,93.86
2019-05-19T00:25:51.658Z,94.81
2019-05-19T00:28:22.588Z,96.04
2019-05-19T00:30:53.634Z,97.38
2019-05-19T00:33:24.914Z,96.61
2019-05-19T00:35:55.029Z,96.71
2019-05-19T00:38:26.248Z,97.28
2019-05-19T00:40:57.331Z,98.32
2019-05-19T00:43:28.611Z,99.09
2019-05-19T00:45:59.760Z,100.00
2019-05-19T00:48:31.009Z,100.00
2019-05-19T00:51:02.125Z,100.00
2019-05-19T00:53:33.464Z,100.00
2019-05-19T00:56:04.484Z,100.00
2019-05-19T00:58:35.997Z,100.00
2019-05-19T01:01:06.954Z,100.00
2019-05-19T01:03:38.227Z,100.00
2019-05-19T01:06:09.431Z,100.00
2019-05-19T01:08:39.663Z,100.00
2019-05-19T01:11:10.901Z,100.00
2019-05-19T01:13:41.942Z,100.00
2019-05-19T01:16:13.228Z,100.00
2019-05-19T01:18:44.168Z,100.00
2019-05-19T01:21:16.271Z,100.00
2019-05-19T01:23:47.253Z,100.00
2019-05-19T01:26:18.319Z,100.00
2019-05-19T01:28:49.377Z,100.00
2019-05-19T01:31:20.676Z,100.00
2019-05-19T01:33:51.578Z,100.00
2019-05-19T01:36:22.989Z,100.00
2019-05-19T01:38:53.977Z,100.00
2019-05-19T01:41:25.309Z,100.00
2019-05-19T01:43:56.369Z,100.00
2019-05-19T01:46:26.472Z,100.00
2019-05-19T01:48:57.855Z,100.00
2019-05-19T01:51:28.755Z,100.00
2019-05-19T01:53:59.835Z,100.00
2019-05-19T01:56:30.885Z,100.00
2019-05-19T01:59:02.145Z,100.00
2019-05-19T02:01:33.143Z,100.00
2019-05-19T02:04:04.538Z,100.00
2019-05-19T02:06:35.494Z,100.00
2019-05-19T02:09:07.541Z,100.00
2019-05-19T02:11:38.508Z,100.00
2019-05-19T02:14:09.756Z,100.00
2019-05-19T02:16:40.734Z,100.00
2019-05-19T02:19:10.928Z,100.00
2019-05-19T02:21:42.032Z,100.00
2019-05-19T02:24:13.064Z,100.00
2019-05-19T02:26:44.209Z,100.00
2019-05-19T02:29:15.192Z,100.00
2019-05-19T02:31:46.369Z,100.00
2019-05-19T02:34:17.421Z,100.00
2019-05-19T02:36:48.582Z,100.00
2019-05-19T02:39:19.641Z,100.00
2019-05-19T02:41:52.590Z,100.00
2019-05-19T02:44:24.883Z,100.00
2019-05-19T02:46:57.083Z,100.00
2019-05-19T02:49:30.486Z,100.00
2019-05-19T02:52:03.427Z,100.00
2019-05-19T02:54:35.741Z,100.00
2019-05-19T02:57:06.870Z,100.00
2019-05-19T02:59:38.386Z,100.00
2019-05-19T03:02:13.773Z,100.00
2019-05-19T03:04:44.826Z,100.00
2019-05-19T03:07:15.771Z,100.00
2019-05-19T03:09:46.935Z,100.00
2019-05-19T03:12:17.978Z,100.00
2019-05-19T03:14:49.161Z,100.00
2019-05-19T03:17:20.130Z,100.00
2019-05-19T03:19:51.290Z,100.00
2019-05-19T03:22:22.213Z,100.00
2019-05-19T03:24:52.353Z,100.00
2019-05-19T03:27:23.480Z,100.00
2019-05-19T03:29:56.161Z,100.00
2019-05-19T03:32:37.742Z,100.00
2019-05-19T03:35:09.282Z,100.00
2019-05-19T03:37:40.506Z,100.00
2019-05-19T03:40:13.221Z,100.00
2019-05-19T03:42:44.455Z,100.00
2019-05-19T03:45:15.428Z,100.00
2019-05-19T03:47:46.751Z,100.00
2019-05-19T03:50:17.724Z,100.00
2019-05-19T03:52:48.973Z,100.00
2019-05-19T03:55:19.937Z,100.00
2019-05-19T03:57:51.088Z,100.00
2019-05-19T04:00:22.321Z,100.00
2019-05-19T04:02:52.377Z,100.00
2019-05-19T04:05:23.528Z,100.00
2019-05-19T04:07:54.512Z,100.00
2019-05-19T04:10:26.237Z,100.00
2019-05-19T04:12:57.101Z,100.00
2019-05-19T04:15:28.456Z,100.00
2019-05-19T04:17:59.352Z,100.00
2019-05-19T04:20:30.532Z,100.00
2019-05-19T04:23:01.435Z,100.00
2019-05-19T04:25:32.781Z,100.00
2019-05-19T04:28:03.884Z,100.00
2019-05-19T04:30:34.947Z,100.00
2019-05-19T04:33:05.837Z,100.00
2019-05-19T04:35:35.976Z,100.00
2019-05-19T04:38:07.125Z,100.00
2019-05-19T04:40:38.039Z,100.00
2019-05-19T04:43:09.354Z,100.00
2019-05-19T04:45:40.350Z,100.00
2019-05-19T04:48:11.574Z,100.00
2019-05-19T04:50:42.543Z,100.00
2019-05-19T04:53:13.633Z,100.00
2019-05-19T04:55:44.603Z,100.00
2019-05-19T04:58:15.857Z,100.00
2019-05-19T05:00:46.825Z,100.00
2019-05-19T05:03:17.978Z,100.00
2019-05-19T05:05:48.949Z,100.00
2019-05-19T05:08:29.532Z,100.00
2019-05-19T05:10:51.807Z,100.00
2019-05-19T05:13:22.732Z,100.00
2019-05-19T05:15:53.794Z,100.00
2019-05-19T05:18:24.798Z,99.88
2019-05-19T05:20:56.035Z,99.18
2019-05-19T05:23:27.014Z,98.45
2019-05-19T05:25:58.187Z,97.56
2019-05-19T05:28:29.181Z,97.76
2019-05-19T05:31:00.415Z,97.02
2019-05-19T05:33:31.326Z,96.38
2019-05-19T05:36:02.581Z,95.57
2019-05-19T05:38:33.539Z,95.21
2019-05-19T05:41:03.691Z,94.77
2019-05-19T05:43:34.888Z,94.16
2019-05-19T05:46:05.879Z,93.56
2019-05-19T05:48:37.210Z,93.39
2019-05-19T05:51:08.277Z,92.85
2019-05-19T05:53:39.546Z,90.84
2019-05-19T05:56:10.634Z,82.44
2019-05-19T05:58:41.780Z,72.25
2019-05-19T06:01:12.752Z,68.28
2019-05-19T06:03:44.140Z,65.93
2019-05-19T06:06:15.174Z,65.11
2019-05-19T06:08:46.491Z,63.50
2019-05-19T06:11:17.473Z,62.36
2019-05-19T06:13:49.547Z,58.12
2019-05-19T06:16:20.395Z,57.98
2019-05-19T06:18:51.446Z,57.62
2019-05-19T06:21:23.824Z,54.47
2019-05-19T06:23:54.709Z,50.66
2019-05-19T06:26:25.887Z,49.41
2019-05-19T06:28:56.787Z,49.03
2019-05-19T06:31:28.055Z,48.03
2019-05-19T06:33:59.052Z,48.42
2019-05-19T06:36:30.341Z,48.53
2019-05-19T06:39:01.491Z,50.34
2019-05-19T06:41:32.581Z,54.97
2019-05-19T06:44:03.773Z,55.28
2019-05-19T06:46:33.945Z,52.67
2019-05-19T06:49:05.108Z,51.23
2019-05-19T06:51:36.039Z,50.09
2019-05-19T06:54:07.371Z,47.79
2019-05-19T06:56:39.780Z,46.56
2019-05-19T06:59:11.037Z,45.03
2019-05-19T07:01:42.096Z,43.65
2019-05-19T07:04:13.323Z,43.86
2019-05-19T07:06:45.001Z,43.83
2019-05-19T07:09:16.465Z,44.16
2019-05-19T07:11:47.449Z,44.48
2019-05-19T07:14:18.714Z,45.36
2019-05-19T07:16:49.739Z,45.49
2019-05-19T07:19:19.821Z,46.80
2019-05-19T07:21:51.031Z,48.67
2019-05-19T07:24:22.056Z,50.23
2019-05-19T07:26:53.130Z,49.79
2019-05-19T07:29:24.220Z,50.13
2019-05-19T07:31:55.535Z,50.30
2019-05-19T07:34:26.523Z,51.15
2019-05-19T07:36:57.719Z,51.34
2019-05-19T07:39:28.722Z,51.81
2019-05-19T07:41:59.815Z,52.28
2019-05-19T07:44:30.794Z,51.45
2019-05-19T07:47:01.960Z,52.28
2019-05-19T07:49:33.031Z,52.66
2019-05-19T07:52:03.208Z,52.30
2019-05-19T07:54:34.287Z,52.80
2019-05-19T07:57:08.375Z,50.75
2019-05-19T07:59:39.454Z,51.68
2019-05-19T08:02:10.621Z,51.40
2019-05-19T08:04:41.969Z,51.08
2019-05-19T08:07:12.937Z,51.03
2019-05-19T08:09:44.021Z,51.83
2019-05-19T08:12:15.045Z,52.10
2019-05-19T08:14:46.185Z,51.63
2019-05-19T08:17:17.150Z,51.03
2019-05-19T08:19:48.294Z,49.84
2019-05-19T08:22:19.253Z,50.32
2019-05-19T08:24:49.340Z,50.77
2019-05-19T08:27:20.539Z,49.92
2019-05-19T08:29:51.564Z,50.96
2019-05-19T08:32:22.859Z,51.87
2019-05-19T08:34:53.829Z,50.31
2019-05-19T08:37:24.926Z,51.23
2019-05-19T08:39:55.896Z,49.34
2019-05-19T08:42:27.161Z,49.08
2019-05-19T08:44:58.212Z,47.30
2019-05-19T08:47:29.558Z,47.85
2019-05-19T08:50:00.452Z,49.42
2019-05-19T08:52:31.668Z,47.51
2019-05-19T08:55:02.732Z,43.00
2019-05-19T08:57:32.809Z,42.38
2019-05-19T09:00:05.869Z,40.56
2019-05-19T09:02:36.910Z,40.44
2019-05-19T09:05:08.182Z,40.19
2019-05-19T09:07:39.211Z,38.47
2019-05-19T09:10:10.890Z,39.24
2019-05-19T09:12:41.851Z,37.42
2019-05-19T09:15:13.275Z,37.54
2019-05-19T09:17:44.158Z,38.92
2019-05-19T09:20:15.476Z,39.06
2019-05-19T09:22:48.112Z,38.53
2019-05-19T09:25:19.359Z,38.22
2019-05-19T09:27:50.292Z,36.76
2019-05-19T09:30:20.599Z,38.39
2019-05-19T09:32:51.838Z,37.33
2019-05-19T09:35:23.128Z,37.29
2019-05-19T09:37:54.221Z,36.02
2019-05-19T09:40:26.802Z,36.52
2019-05-19T09:42:58.148Z,35.21
2019-05-19T09:45:30.492Z,34.94
2019-05-19T09:48:01.798Z,34.82
2019-05-19T09:50:32.848Z,33.24
2019-05-19T09:53:04.206Z,32.35
2019-05-19T09:55:35.262Z,32.35
2019-05-19T09:58:06.884Z,31.71
2019-05-19T10:00:38.069Z,33.57
2019-05-19T10:03:08.434Z,31.97
2019-05-19T10:05:39.828Z,31.30
2019-05-19T10:08:10.863Z,31.47
2019-05-19T10:10:48.310Z,31.47
2019-05-19T10:13:19.327Z,30.69
2019-05-19T10:15:50.659Z,31.31
2019-05-19T10:18:21.679Z,31.31
2019-05-19T10:20:53.182Z,31.46
2019-05-19T10:23:24.164Z,31.24
2019-05-19T10:25:55.479Z,31.08
2019-05-19T10:28:26.570Z,32.27
2019-05-19T10:30:58.099Z,32.27
2019-05-19T10:33:29.118Z,31.27
2019-05-19T10:36:00.438Z,30.46
2019-05-19T10:38:31.398Z,28.90
2019-05-19T10:41:01.541Z,27.90
2019-05-19T10:43:32.763Z,29.45
2019-05-19T10:46:03.816Z,29.73
2019-05-19T10:48:35.051Z,29.75
2019-05-19T10:51:06.201Z,28.50
2019-05-19T10:53:37.324Z,27.44
2019-05-19T10:56:08.555Z,27.50
2019-05-19T10:58:39.830Z,28.53
2019-05-19T11:01:10.848Z,28.66
2019-05-19T11:03:42.076Z,28.05
2019-05-19T11:06:13.286Z,26.74
2019-05-19T11:08:44.627Z,26.73
2019-05-19T11:11:15.648Z,25.97
2019-05-19T11:13:45.752Z,26.18
2019-05-19T11:16:17.105Z,27.04
2019-05-19T11:18:48.251Z,26.55
2019-05-19T11:21:19.441Z,27.78
2019-05-19T11:23:50.427Z,27.05
2019-05-19T11:26:21.662Z,26.85
2019-05-19T11:28:55.856Z,26.89
2019-05-19T11:31:27.241Z,27.90
2019-05-19T11:33:58.410Z,26.84
2019-05-19T11:36:29.624Z,26.46
2019-05-19T11:39:00.681Z,28.15
2019-05-19T11:41:31.989Z,29.03
2019-05-19T11:44:03.162Z,30.04
2019-05-19T11:46:33.506Z,30.26
2019-05-19T11:49:04.760Z,31.18
2019-05-19T11:51:35.905Z,31.08
2019-05-19T11:54:07.140Z,31.57
2019-05-19T11:56:38.292Z,32.47
2019-05-19T11:59:10.275Z,32.60
2019-05-19T12:01:41.360Z,33.29
2019-05-19T12:04:12.534Z,33.63
2019-05-19T12:06:43.634Z,34.36
2019-05-19T12:09:14.898Z,34.54
2019-05-19T12:11:45.926Z,32.66
2019-05-19T12:14:17.155Z,30.29
2019-05-19T12:16:48.262Z,30.29
2019-05-19T12:19:18.386Z,31.75
2019-05-19T12:21:49.775Z,31.75
2019-05-19T12:24:20.817Z,30.89
2019-05-19T12:26:52.219Z,28.54
2019-05-19T12:29:23.206Z,29.29
2019-05-19T12:31:54.567Z,30.25
2019-05-19T12:34:25.689Z,32.74
2019-05-19T12:36:56.962Z,33.56
2019-05-19T12:39:28.052Z,33.53
2019-05-19T12:41:59.534Z,33.30
2019-05-19T12:44:30.513Z,32.74
2019-05-19T12:47:01.656Z,32.08
2019-05-19T12:49:32.640Z,31.71
2019-05-19T12:52:02.914Z,32.81
2019-05-19T12:54:34.172Z,30.34
2019-05-19T12:57:05.264Z,28.99
2019-05-19T12:59:36.556Z,26.55
2019-05-19T13:02:07.632Z,26.55
2019-05-19T13:04:39.931Z,25.92
2019-05-19T13:07:11.137Z,23.92
2019-05-19T13:09:42.352Z,23.31
2019-05-19T13:12:13.592Z,24.03
2019-05-19T13:14:45.068Z,24.69
2019-05-19T13:17:16.212Z,24.76
2019-05-19T13:19:47.548Z,24.14
2019-05-19T13:22:18.523Z,25.13
2019-05-19T13:24:48.704Z,23.39
2019-05-19T13:27:20.009Z,23.08
2019-05-19T13:29:51.055Z,23.54
2019-05-19T13:32:22.380Z,23.32
2019-05-19T13:34:53.455Z,24.70
2019-05-19T13:37:24.944Z,23.72
2019-05-19T13:39:56.002Z,23.08
2019-05-19T13:42:27.238Z,22.99
2019-05-19T13:44:58.261Z,22.90
2019-05-19T13:47:29.503Z,23.29
2019-05-19T13:50:00.564Z,23.71
2019-05-19T13:52:31.833Z,23.36
2019-05-19T13:55:02.931Z,25.57
2019-05-19T13:57:35.735Z,27.13
2019-05-19T14:00:08.009Z,27.89
2019-05-19T14:02:39.066Z,28.94
2019-05-19T14:05:10.439Z,27.43
2019-05-19T14:07:41.491Z,25.62
2019-05-19T14:10:13.288Z,24.56
2019-05-19T14:12:44.342Z,24.66
2019-05-19T14:15:15.968Z,25.73
2019-05-19T14:17:47.145Z,25.90
2019-05-19T14:20:18.374Z,26.95
2019-05-19T14:22:49.340Z,28.32
2019-05-19T14:25:20.735Z,29.51
2019-05-19T14:27:51.741Z,30.54
2019-05-19T14:30:22.150Z,31.48
2019-05-19T14:32:53.321Z,31.95
2019-05-19T14:35:24.516Z,31.39
2019-05-19T14:37:55.954Z,32.14
2019-05-19T14:40:27.016Z,31.30
2019-05-19T14:43:00.112Z,31.30
2019-05-19T14:45:31.403Z,30.24
2019-05-19T14:48:02.797Z,30.24
2019-05-19T14:50:33.838Z,29.10
2019-05-19T14:53:05.228Z,26.77
2019-05-19T14:55:36.285Z,26.50
2019-05-19T14:58:07.663Z,26.28
2019-05-19T15:00:40.333Z,25.46
2019-05-19T15:03:10.628Z,25.61
2019-05-19T15:05:41.963Z,24.85
2019-05-19T15:08:13.074Z,26.15
2019-05-19T15:10:44.228Z,27.42
2019-05-19T15:13:15.198Z,28.23
2019-05-19T15:15:46.709Z,27.23
2019-05-19T15:18:17.673Z,27.02
2019-05-19T15:20:48.929Z,27.24
2019-05-19T15:23:20.031Z,27.03
2019-05-19T15:25:51.265Z,27.11
2019-05-19T15:28:22.355Z,27.01
2019-05-19T15:30:53.721Z,27.29
2019-05-19T15:33:24.767Z,26.57
2019-05-19T15:35:56.107Z,26.79
2019-05-19T15:38:27.331Z,26.45
2019-05-19T15:40:57.467Z,27.73
2019-05-19T15:43:28.710Z,27.19
2019-05-19T15:45:59.669Z,26.96
2019-05-19T15:48:30.975Z,27.02
2019-05-19T15:51:01.966Z,26.92
2019-05-19T15:53:33.262Z,27.93
2019-05-19T15:56:04.343Z,29.32
2019-05-19T15:58:37.673Z,30.24
2019-05-19T16:01:08.839Z,30.12
2019-05-19T16:03:40.253Z,29.11
2019-05-19T16:06:11.348Z,28.94
2019-05-19T16:08:44.029Z,28.46
2019-05-19T16:11:15.187Z,28.77
2019-05-19T16:13:45.429Z,29.52
2019-05-19T16:16:16.703Z,29.30
2019-05-19T16:18:47.785Z,28.69
2019-05-19T16:21:19.178Z,28.28
2019-05-19T16:23:50.281Z,28.52
2019-05-19T16:26:21.691Z,28.08
2019-05-19T16:28:52.757Z,29.41
2019-05-19T16:31:24.091Z,30.89
2019-05-19T16:33:55.077Z,31.56
2019-05-19T16:36:26.432Z,32.59
2019-05-19T16:38:57.490Z,33.38
2019-05-19T16:41:28.710Z,33.38
2019-05-19T16:43:59.818Z,34.77
2019-05-19T16:46:29.886Z,34.77
2019-05-19T16:49:04.066Z,34.88
2019-05-19T16:51:36.502Z,35.32
2019-05-19T16:54:10.716Z,35.32
2019-05-19T16:56:41.636Z,36.12
2019-05-19T16:59:12.870Z,36.09
2019-05-19T17:01:43.938Z,36.10
2019-05-19T17:04:17.811Z,39.91
2019-05-19T17:06:49.010Z,47.01
2019-05-19T17:09:20.512Z,49.82
2019-05-19T17:11:51.643Z,53.99
2019-05-19T17:14:22.876Z,57.40
2019-05-19T17:16:53.871Z,55.02
2019-05-19T17:19:24.070Z,58.54
2019-05-19T17:21:55.443Z,55.80
2019-05-19T17:24:26.494Z,55.82
2019-05-19T17:26:57.631Z,57.34
2019-05-19T17:29:28.594Z,59.00
2019-05-19T17:32:06.061Z,56.14
2019-05-19T17:34:32.712Z,56.02
2019-05-19T17:37:03.950Z,57.58
2019-05-19T17:39:35.109Z,56.36
2019-05-19T17:42:06.482Z,53.25
2019-05-19T17:44:37.427Z,52.88
2019-05-19T17:47:08.817Z,47.71
2019-05-19T17:49:39.830Z,48.32
2019-05-19T17:52:09.954Z,48.32
2019-05-19T17:54:41.382Z,49.46
2019-05-19T17:57:22.980Z,48.80
2019-05-19T17:59:54.570Z,50.42
2019-05-19T18:02:25.694Z,49.28
2019-05-19T18:04:56.905Z,51.39
2019-05-19T18:07:27.868Z,52.55
2019-05-19T18:09:59.119Z,53.96
2019-05-19T18:12:30.108Z,56.01
2019-05-19T18:15:03.354Z,54.75
2019-05-19T18:17:34.092Z,56.22
2019-05-19T18:20:07.300Z,57.32
2019-05-19T18:22:38.449Z,58.28
2019-05-19T18:25:09.501Z,58.68
2019-05-19T18:27:43.234Z,58.73
2019-05-19T18:30:13.768Z,58.68
2019-05-19T18:32:44.930Z,58.24
2019-05-19T18:35:15.907Z,58.48
2019-05-19T18:37:46.984Z,57.98
2019-05-19T18:40:18.154Z,58.51
2019-05-19T18:42:49.437Z,59.17
2019-05-19T18:45:20.796Z,61.08
2019-05-19T18:47:52.018Z,65.27
2019-05-19T18:50:23.164Z,70.30
2019-05-19T18:52:54.477Z,74.60
2019-05-19T18:55:26.294Z,77.76
2019-05-19T18:57:57.583Z,79.67
2019-05-19T19:00:36.902Z,82.53
2019-05-19T19:03:07.378Z,85.27
2019-05-19T19:05:38.715Z,88.49
2019-05-19T19:08:10.164Z,93.48
2019-05-19T19:10:41.416Z,93.78
2019-05-19T19:13:13.107Z,95.15
2019-05-19T19:15:45.160Z,94.94
2019-05-19T19:18:17.849Z,95.14
2019-05-19T19:20:52.285Z,95.90
2019-05-19T19:23:24.619Z,94.89
2019-05-19T19:25:57.342Z,93.17
2019-05-19T19:28:33.656Z,91.44
2019-05-19T19:31:05.113Z,93.87
2019-05-19T19:33:38.227Z,89.65
2019-05-19T19:36:10.895Z,90.86
2019-05-19T19:38:41.870Z,91.04
2019-05-19T19:41:14.368Z,92.13
2019-05-19T19:43:48.413Z,93.40
2019-05-19T19:46:19.557Z,95.41
2019-05-19T19:48:52.215Z,96.55
2019-05-19T19:51:23.112Z,97.33
2019-05-19T19:53:54.316Z,97.48
2019-05-19T19:56:25.323Z,95.88
2019-05-19T19:58:56.552Z,95.40
2019-05-19T20:01:27.445Z,95.75
2019-05-19T20:03:58.575Z,94.90
2019-05-19T20:06:29.499Z,94.20
2019-05-19T20:09:00.739Z,94.37
2019-05-19T20:11:31.819Z,92.52
2019-05-19T20:14:02.313Z,91.23
2019-05-19T20:16:33.796Z,89.28
2019-05-19T20:21:35.363Z,88.25
2019-05-19T20:24:06.656Z,89.21
2019-05-19T20:26:38.398Z,88.94
2019-05-19T20:29:09.414Z,89.05
2019-05-19T20:31:40.683Z,88.91
2019-05-19T20:34:11.985Z,89.24
2019-05-19T20:36:43.219Z,89.75
2019-05-19T20:39:14.945Z,90.53
2019-05-19T20:41:46.170Z,91.09
2019-05-19T20:44:17.154Z,91.27
2019-05-19T20:46:49.012Z,91.88
2019-05-19T20:49:20.361Z,93.00
2019-05-19T20:51:50.568Z,93.61
2019-05-19T20:54:21.716Z,92.91
2019-05-19T20:56:54.262Z,91.49
2019-05-19T20:59:25.304Z,91.63
2019-05-19T21:01:56.351Z,92.51
2019-05-19T21:04:27.456Z,93.25
2019-05-19T21:06:58.550Z,94.58
2019-05-19T21:09:29.631Z,94.41
2019-05-19T21:12:00.920Z,96.17
2019-05-19T21:14:32.115Z,97.14
2019-05-19T21:17:03.111Z,97.31
2019-05-19T21:19:33.107Z,99.10
2019-05-19T21:22:04.282Z,99.17
2019-05-19T21:24:35.238Z,100.00
2019-05-19T21:27:06.502Z,100.00
2019-05-19T21:29:37.436Z,100.00
2019-05-19T21:32:08.616Z,100.00
2019-05-19T21:34:39.584Z,100.00
2019-05-19T21:37:10.859Z,100.00
2019-05-19T21:39:41.915Z,100.00
2019-05-19T21:42:15.908Z,100.00
2019-05-19T21:44:46.911Z,100.00
2019-05-19T21:47:18.335Z,100.00
2019-05-19T21:49:49.331Z,100.00
2019-05-19T21:52:20.534Z,100.00
2019-05-19T21:54:51.782Z,100.00
2019-05-19T21:57:21.975Z,100.00
2019-05-19T21:59:53.323Z,100.00
2019-05-19T22:02:24.458Z,100.00
2019-05-19T22:04:55.709Z,100.00
2019-05-19T22:07:28.422Z,100.00
2019-05-19T22:09:59.602Z,100.00
2019-05-19T22:12:30.728Z,100.00
2019-05-19T22:15:02.058Z,100.00
2019-05-19T22:17:33.134Z,100.00
2019-05-19T22:20:06.358Z,100.00
2019-05-19T22:22:37.413Z,100.00
2019-05-19T22:25:08.748Z,100.00
2019-05-19T22:27:39.814Z,100.00
2019-05-19T22:30:10.132Z,100.00
2019-05-19T22:32:41.353Z,100.00
2019-05-19T22:35:14.017Z,100.00
2019-05-19T22:37:45.102Z,100.00
2019-05-19T22:40:16.268Z,100.00
2019-05-19T22:42:47.447Z,100.00
2019-05-19T22:45:18.504Z,100.00
2019-05-19T22:47:49.698Z,100.00
2019-05-19T22:50:20.761Z,100.00
2019-05-19T22:52:52.103Z,100.00
2019-05-19T22:55:23.184Z,100.00
2019-05-19T22:57:54.354Z,100.00
2019-05-19T23:00:26.564Z,100.00
2019-05-19T23:02:56.726Z,100.00
2019-05-19T23:05:27.900Z,100.00
2019-05-19T23:07:58.951Z,100.00
2019-05-19T23:10:30.407Z,100.00
2019-05-19T23:13:01.277Z,100.00
2019-05-19T23:15:32.628Z,100.00
2019-05-19T23:18:03.719Z,100.00
2019-05-19T23:20:34.887Z,100.00
2019-05-19T23:23:05.926Z,100.00
2019-05-19T23:25:37.311Z,100.00
2019-05-19T23:28:08.380Z,100.00
2019-05-19T23:30:39.552Z,100.00
2019-05-19T23:33:10.473Z,100.00
2019-05-19T23:35:40.647Z,100.00
2019-05-19T23:38:11.912Z,100.00
2019-05-19T23:40:43.378Z,100.00
2019-05-19T23:43:14.814Z,100.00
2019-05-19T23:45:45.896Z,100.00
2019-05-19T23:48:17.159Z,100.00
2019-05-19T23:50:48.171Z,100.00
2019-05-19T23:53:19.265Z,100.00
2019-05-19T23:55:50.278Z,100.00
2019-05-19T23:58:22.017Z,100.00
